createdAt,value
2017-01-06T00:00:38.629Z,0
2017-01-06T00:01:52.657Z,0
2017-01-06T00:03:06.283Z,0
2017-01-06T00:04:19.852Z,0
2017-01-06T00:05:33.776Z,0
2017-01-06T00:06:47.362Z,0
2017-01-06T00:08:01.130Z,0
2017-01-06T00:09:14.723Z,0
2017-01-06T00:10:28.454Z,0
2017-01-06T00:15:06.699Z,0
2017-01-06T00:19:18.007Z,0
2017-01-06T00:20:31.587Z,0
2017-01-06T00:21:45.199Z,0
2017-01-06T00:22:58.824Z,0
2017-01-06T00:24:13.172Z,0
2017-01-06T00:25:26.805Z,0
2017-01-06T00:26:41.462Z,0
2017-01-06T00:27:55.072Z,0
2017-01-06T00:29:08.795Z,0
2017-01-06T00:30:22.971Z,0
2017-01-06T00:31:37.015Z,0
2017-01-06T00:32:50.557Z,0
2017-01-06T00:34:04.185Z,0
2017-01-06T00:35:19.036Z,0
2017-01-06T00:36:32.705Z,0
2017-01-06T00:37:46.283Z,0
2017-01-06T00:39:00.733Z,0
2017-01-06T00:40:14.397Z,0
2017-01-06T00:41:28.049Z,0
2017-01-06T00:42:41.860Z,0
2017-01-06T00:43:55.424Z,0
2017-01-06T00:45:09.056Z,0
2017-01-06T00:46:22.650Z,0
2017-01-06T00:47:36.246Z,0
2017-01-06T00:48:49.775Z,0
2017-01-06T00:50:03.747Z,0
2017-01-06T00:51:17.376Z,0
2017-01-06T00:52:31.359Z,0
2017-01-06T00:53:44.949Z,0
2017-01-06T00:54:58.515Z,0
2017-01-06T00:56:12.226Z,0
2017-01-06T00:57:26.143Z,0
2017-01-06T00:58:39.824Z,0
2017-01-06T00:59:53.370Z,0
2017-01-06T01:01:07.990Z,0
2017-01-06T01:02:21.596Z,0
2017-01-06T01:03:35.114Z,0
2017-01-06T01:04:48.705Z,0
2017-01-06T01:06:02.460Z,0
2017-01-06T01:07:16.057Z,0
2017-01-06T01:08:29.601Z,0
2017-01-06T01:09:43.213Z,0
2017-01-06T01:10:58.999Z,0
2017-01-06T01:12:12.680Z,0
2017-01-06T01:13:26.261Z,0
2017-01-06T01:14:39.826Z,0
2017-01-06T01:15:53.867Z,0
2017-01-06T01:17:07.648Z,0
2017-01-06T01:18:21.897Z,0
2017-01-06T01:19:36.369Z,0
2017-01-06T01:20:50.019Z,0
2017-01-06T01:22:04.184Z,0
2017-01-06T01:23:18.184Z,0
2017-01-06T01:24:32.819Z,0
2017-01-06T01:25:47.260Z,0
2017-01-06T01:27:02.097Z,0
2017-01-06T01:28:16.359Z,0
2017-01-06T01:29:30.371Z,0
2017-01-06T01:30:44.673Z,0
2017-01-06T01:31:58.784Z,0
2017-01-06T01:33:12.434Z,0
2017-01-06T01:34:26.143Z,0
2017-01-06T01:35:40.648Z,0
2017-01-06T01:36:54.316Z,0
2017-01-06T01:38:08.333Z,0
2017-01-06T01:39:21.905Z,0
2017-01-06T01:40:35.717Z,0
2017-01-06T01:41:49.363Z,0
2017-01-06T01:43:04.303Z,0
2017-01-06T01:44:19.194Z,0
2017-01-06T01:45:33.245Z,0
2017-01-06T01:46:47.819Z,0
2017-01-06T01:48:01.465Z,0
2017-01-06T01:49:16.906Z,0
2017-01-06T01:50:31.153Z,0
2017-01-06T01:51:44.715Z,0
2017-01-06T01:52:58.320Z,0
2017-01-06T01:54:13.635Z,0
2017-01-06T01:55:27.280Z,0
2017-01-06T01:56:41.264Z,0
2017-01-06T01:57:54.805Z,0
2017-01-06T01:59:08.491Z,0
2017-01-06T02:00:22.106Z,0
2017-01-06T02:01:36.191Z,0
2017-01-06T02:02:49.773Z,0
2017-01-06T02:04:03.371Z,0
2017-01-06T02:05:17.167Z,0
2017-01-06T02:06:30.719Z,0
2017-01-06T02:07:44.395Z,0
2017-01-06T02:08:57.987Z,0
2017-01-06T02:10:11.604Z,0
2017-01-06T02:11:25.190Z,0
2017-01-06T02:12:39.168Z,0
2017-01-06T02:13:52.762Z,0
2017-01-06T02:15:06.397Z,0
2017-01-06T02:16:19.996Z,0
2017-01-06T02:17:34.661Z,0
2017-01-06T02:18:49.097Z,0
2017-01-06T02:20:02.792Z,0
2017-01-06T02:21:16.365Z,0
2017-01-06T02:22:34.974Z,0
2017-01-06T02:23:48.519Z,0
2017-01-06T02:25:02.089Z,0
2017-01-06T02:26:15.826Z,0
2017-01-06T02:27:31.910Z,0
2017-01-06T02:28:45.463Z,0
2017-01-06T02:29:59.057Z,0
2017-01-06T02:31:12.680Z,0
2017-01-06T02:32:26.234Z,0
2017-01-06T02:33:39.844Z,0
2017-01-06T02:34:55.099Z,0
2017-01-06T02:36:09.147Z,0
2017-01-06T02:37:22.727Z,0
2017-01-06T02:38:36.265Z,0
2017-01-06T02:39:49.831Z,0
2017-01-06T02:41:03.456Z,0
2017-01-06T02:42:17.021Z,0
2017-01-06T02:43:30.563Z,0
2017-01-06T02:44:44.120Z,0
2017-01-06T02:45:58.389Z,0
2017-01-06T02:47:12.114Z,0
2017-01-06T02:48:25.675Z,0
2017-01-06T02:49:39.351Z,0
2017-01-06T02:50:52.903Z,0
2017-01-06T02:52:06.563Z,0
2017-01-06T02:53:20.342Z,0
2017-01-06T02:54:33.913Z,0
2017-01-06T02:55:47.483Z,0
2017-01-06T02:57:01.060Z,0
2017-01-06T02:58:14.678Z,0
2017-01-06T02:59:28.436Z,0
2017-01-06T03:00:42.025Z,0
2017-01-06T03:01:55.633Z,0
2017-01-06T03:03:09.273Z,0
2017-01-06T03:04:22.808Z,0
2017-01-06T03:05:36.447Z,0
2017-01-06T03:06:50.001Z,0
2017-01-06T03:08:04.882Z,0
2017-01-06T03:09:19.357Z,0
2017-01-06T03:10:33.348Z,0
2017-01-06T03:11:47.312Z,0
2017-01-06T03:13:00.945Z,0
2017-01-06T03:14:17.065Z,0
2017-01-06T03:15:33.815Z,0
2017-01-06T03:16:49.919Z,0
2017-01-06T03:18:05.986Z,0
2017-01-06T03:19:22.476Z,0
2017-01-06T03:20:39.366Z,0
2017-01-06T03:21:55.668Z,0
2017-01-06T03:23:11.614Z,0
2017-01-06T03:24:26.036Z,0
2017-01-06T03:25:39.602Z,0
2017-01-06T03:26:53.595Z,0
2017-01-06T03:28:07.193Z,0
2017-01-06T03:29:21.175Z,0
2017-01-06T03:30:35.202Z,0
2017-01-06T03:31:48.800Z,0
2017-01-06T03:33:03.688Z,0
2017-01-06T03:34:18.585Z,0
2017-01-06T03:35:33.004Z,0
2017-01-06T03:36:46.744Z,0
2017-01-06T03:38:01.624Z,0
2017-01-06T03:39:15.680Z,0
2017-01-06T03:40:29.287Z,0
2017-01-06T03:41:44.164Z,0
2017-01-06T03:42:57.860Z,0
2017-01-06T03:44:14.077Z,0
2017-01-06T03:45:27.631Z,0
2017-01-06T03:46:41.212Z,0
2017-01-06T03:47:55.559Z,0
2017-01-06T03:49:10.253Z,0
2017-01-06T03:50:23.839Z,0
2017-01-06T03:51:38.268Z,0
2017-01-06T03:52:51.867Z,0
2017-01-06T03:54:06.775Z,0
2017-01-06T03:55:21.892Z,0
2017-01-06T03:56:36.741Z,0
2017-01-06T03:57:50.557Z,0
2017-01-06T03:59:04.137Z,0
2017-01-06T04:00:17.731Z,0
2017-01-06T04:01:31.453Z,0
2017-01-06T04:02:45.012Z,0
2017-01-06T04:03:58.578Z,0
2017-01-06T04:05:12.174Z,0
2017-01-06T04:06:30.853Z,0
2017-01-06T04:07:44.670Z,0
2017-01-06T04:08:58.251Z,0
2017-01-06T04:10:12.328Z,0
2017-01-06T04:11:25.922Z,0
2017-01-06T04:12:39.556Z,0
2017-01-06T04:13:53.196Z,0
2017-01-06T04:15:07.119Z,0
2017-01-06T04:16:20.689Z,0
2017-01-06T04:17:34.298Z,0
2017-01-06T04:19:13.580Z,0
2017-01-06T04:20:28.418Z,0
2017-01-06T04:21:42.027Z,0
2017-01-06T04:22:55.592Z,0
2017-01-06T04:24:09.303Z,0
2017-01-06T04:25:22.950Z,0
2017-01-06T04:26:36.532Z,0
2017-01-06T04:27:50.108Z,0
2017-01-06T04:29:03.722Z,0
2017-01-06T04:30:17.303Z,0
2017-01-06T04:31:31.229Z,0
2017-01-06T04:32:44.812Z,0
2017-01-06T04:33:58.428Z,0
2017-01-06T04:35:11.974Z,0
2017-01-06T04:36:25.578Z,0
2017-01-06T04:37:39.131Z,0
2017-01-06T04:38:52.878Z,0
2017-01-06T04:40:06.455Z,0
2017-01-06T04:41:20.067Z,0
2017-01-06T04:42:33.690Z,0
2017-01-06T04:43:47.359Z,0
2017-01-06T04:45:01.164Z,0
2017-01-06T04:46:14.769Z,0
2017-01-06T04:47:28.359Z,0
2017-01-06T04:48:41.920Z,0
2017-01-06T04:49:55.489Z,0
2017-01-06T04:51:09.092Z,0
2017-01-06T04:52:22.781Z,0
2017-01-06T04:53:36.559Z,0
2017-01-06T04:54:50.203Z,0
2017-01-06T04:56:04.057Z,0
2017-01-06T04:57:17.703Z,0
2017-01-06T04:58:31.281Z,0
2017-01-06T04:59:55.536Z,0
2017-01-06T05:01:11.342Z,0
2017-01-06T05:02:26.164Z,0
2017-01-06T05:03:40.089Z,0
2017-01-06T05:04:53.658Z,0
2017-01-06T05:06:07.240Z,0
2017-01-06T05:07:28.400Z,0
2017-01-06T05:08:41.991Z,0
2017-01-06T05:09:55.736Z,0
2017-01-06T05:11:09.320Z,0
2017-01-06T05:12:22.931Z,0
2017-01-06T05:13:37.088Z,0
2017-01-06T05:14:50.651Z,0
2017-01-06T05:16:05.269Z,0
2017-01-06T05:17:18.829Z,0
2017-01-06T05:18:32.448Z,0
2017-01-06T05:19:46.198Z,0
2017-01-06T05:20:59.807Z,0
2017-01-06T05:22:14.199Z,0
2017-01-06T05:23:28.327Z,0
2017-01-06T05:24:42.371Z,0
2017-01-06T05:25:56.824Z,0
2017-01-06T05:27:13.003Z,0
2017-01-06T05:28:29.304Z,0
2017-01-06T05:29:43.019Z,0
2017-01-06T05:30:58.387Z,0
2017-01-06T05:32:13.376Z,0
2017-01-06T05:33:27.392Z,0
2017-01-06T05:34:41.451Z,0
2017-01-06T05:35:55.989Z,0
2017-01-06T05:37:10.168Z,0
2017-01-06T05:38:26.402Z,0
2017-01-06T05:39:41.264Z,0
2017-01-06T05:40:55.790Z,0
2017-01-06T05:42:09.972Z,0
2017-01-06T05:43:24.380Z,0
2017-01-06T05:44:38.038Z,0
2017-01-06T05:45:51.732Z,0
2017-01-06T05:47:05.481Z,0
2017-01-06T05:48:19.252Z,0
2017-01-06T05:49:33.343Z,0
2017-01-06T05:50:48.239Z,0
2017-01-06T05:52:02.730Z,0
2017-01-06T05:53:18.066Z,0
2017-01-06T05:54:31.806Z,0
2017-01-06T05:55:46.195Z,0
2017-01-06T05:57:04.774Z,0
2017-01-06T05:58:18.746Z,0
2017-01-06T05:59:32.404Z,0
2017-01-06T06:00:49.255Z,0
2017-01-06T06:02:04.636Z,0
2017-01-06T06:03:19.571Z,0
2017-01-06T06:04:34.523Z,0
2017-01-06T06:05:49.587Z,0
2017-01-06T06:07:03.644Z,0
2017-01-06T06:08:18.186Z,0
2017-01-06T06:09:33.160Z,0
2017-01-06T06:10:47.150Z,0
2017-01-06T06:12:01.183Z,0
2017-01-06T06:13:14.806Z,0
2017-01-06T06:14:29.314Z,0
2017-01-06T06:15:43.292Z,0
2017-01-06T06:16:56.891Z,0
2017-01-06T06:18:13.694Z,0
2017-01-06T06:19:27.310Z,0
2017-01-06T06:20:42.438Z,0
2017-01-06T06:21:56.482Z,0
2017-01-06T06:23:10.479Z,0
2017-01-06T06:24:24.926Z,0
2017-01-06T06:25:39.481Z,0
2017-01-06T06:26:53.485Z,0
2017-01-06T06:28:07.507Z,0
2017-01-06T06:29:21.541Z,0
2017-01-06T06:30:35.598Z,0
2017-01-06T06:31:49.201Z,0
2017-01-06T06:33:03.635Z,0
2017-01-06T06:34:18.065Z,0
2017-01-06T06:35:31.712Z,0
2017-01-06T06:36:46.122Z,0
2017-01-06T06:38:00.573Z,0
2017-01-06T06:39:14.974Z,0
2017-01-06T06:40:29.517Z,0
2017-01-06T06:41:43.584Z,0
2017-01-06T06:42:58.540Z,0
2017-01-06T06:44:12.539Z,0
2017-01-06T06:45:26.684Z,0
2017-01-06T06:46:41.590Z,0
2017-01-06T06:48:21.386Z,0
2017-01-06T06:49:35.007Z,0
2017-01-06T06:50:48.622Z,0
2017-01-06T06:52:02.203Z,0
2017-01-06T06:53:16.269Z,0
2017-01-06T06:54:29.856Z,0
2017-01-06T06:55:43.946Z,0
2017-01-06T06:56:57.995Z,0
2017-01-06T06:58:12.476Z,0
2017-01-06T06:59:26.155Z,0
2017-01-06T07:00:40.733Z,0
2017-01-06T07:01:54.325Z,0
2017-01-06T07:03:08.812Z,0
2017-01-06T07:04:23.698Z,0
2017-01-06T07:05:37.386Z,0
2017-01-06T07:06:51.613Z,0
2017-01-06T07:08:06.069Z,0
2017-01-06T07:09:20.114Z,0
2017-01-06T07:10:34.122Z,0
2017-01-06T07:11:48.261Z,0
2017-01-06T07:13:03.187Z,0
2017-01-06T07:14:17.155Z,0
2017-01-06T07:15:31.192Z,0
2017-01-06T07:16:46.489Z,0
2017-01-06T07:18:00.433Z,0
2017-01-06T07:19:14.537Z,0
2017-01-06T07:20:28.573Z,5
2017-01-06T07:21:42.728Z,5
2017-01-06T07:22:56.322Z,5
2017-01-06T07:24:10.347Z,5
2017-01-06T07:25:25.314Z,5
2017-01-06T07:26:39.372Z,5
2017-01-06T07:27:54.224Z,5
2017-01-06T07:29:09.163Z,5
2017-01-06T07:30:22.768Z,10
2017-01-06T07:31:36.911Z,10
2017-01-06T07:32:51.780Z,10
2017-01-06T07:34:05.801Z,10
2017-01-06T07:35:22.023Z,10
2017-01-06T07:36:35.596Z,10
2017-01-06T07:37:50.418Z,10
2017-01-06T07:39:04.044Z,15
2017-01-06T07:40:18.066Z,15
2017-01-06T07:41:32.499Z,15
2017-01-06T07:42:46.590Z,15
2017-01-06T07:44:01.079Z,15
2017-01-06T07:45:15.199Z,20
2017-01-06T07:46:29.684Z,20
2017-01-06T07:47:43.942Z,20
2017-01-06T07:48:57.563Z,20
2017-01-06T07:50:12.021Z,20
2017-01-06T07:51:26.467Z,20
2017-01-06T07:52:40.970Z,25
2017-01-06T07:53:56.398Z,25
2017-01-06T07:55:10.572Z,25
2017-01-06T07:56:25.535Z,25
2017-01-06T07:57:41.014Z,25
2017-01-06T07:58:57.682Z,30
2017-01-06T08:00:11.819Z,30
2017-01-06T08:01:25.900Z,30
2017-01-06T08:02:39.916Z,30
2017-01-06T08:03:54.448Z,30
2017-01-06T08:05:08.044Z,35
2017-01-06T08:06:21.697Z,35
2017-01-06T08:07:35.309Z,35
2017-01-06T08:08:48.972Z,35
2017-01-06T08:10:03.478Z,35
2017-01-06T08:11:17.496Z,40
2017-01-06T08:12:32.011Z,40
2017-01-06T08:13:46.155Z,40
2017-01-06T08:15:00.211Z,40
2017-01-06T08:16:14.269Z,45
2017-01-06T08:17:29.222Z,45
2017-01-06T08:18:43.313Z,45
2017-01-06T08:19:57.800Z,45
2017-01-06T08:21:13.135Z,45
2017-01-06T08:22:28.031Z,45
2017-01-06T08:23:42.543Z,45
2017-01-06T08:24:57.006Z,45
2017-01-06T08:26:11.029Z,45
2017-01-06T08:27:25.087Z,45
2017-01-06T08:28:39.123Z,50
2017-01-06T08:29:54.686Z,50
2017-01-06T08:31:08.317Z,50
2017-01-06T08:32:23.236Z,50
2017-01-06T08:33:37.272Z,50
2017-01-06T08:34:51.397Z,50
2017-01-06T08:36:05.114Z,50
2017-01-06T08:37:18.867Z,55
2017-01-06T08:38:33.336Z,55
2017-01-06T08:39:47.531Z,55
2017-01-06T08:41:02.863Z,55
2017-01-06T08:42:17.795Z,55
2017-01-06T08:43:32.374Z,55
2017-01-06T08:44:46.519Z,60
2017-01-06T08:46:00.535Z,60
2017-01-06T08:47:15.438Z,60
2017-01-06T08:48:29.531Z,60
2017-01-06T08:49:44.863Z,60
2017-01-06T08:50:59.343Z,65
2017-01-06T08:52:16.132Z,65
2017-01-06T08:53:30.556Z,65
2017-01-06T08:54:45.088Z,65
2017-01-06T08:55:59.227Z,65
2017-01-06T08:57:13.107Z,65
2017-01-06T08:58:26.709Z,70
2017-01-06T08:59:41.283Z,70
2017-01-06T09:00:55.455Z,70
2017-01-06T09:02:10.333Z,70
2017-01-06T09:03:24.891Z,70
2017-01-06T09:04:39.823Z,70
2017-01-06T09:05:54.109Z,75
2017-01-06T09:07:08.215Z,75
2017-01-06T09:08:22.347Z,75
2017-01-06T09:09:35.953Z,75
2017-01-06T09:10:51.744Z,75
2017-01-06T09:12:05.445Z,80
2017-01-06T09:13:19.111Z,80
2017-01-06T09:14:34.006Z,75
2017-01-06T09:15:48.644Z,80
2017-01-06T09:17:02.695Z,80
2017-01-06T09:18:16.738Z,85
2017-01-06T09:19:30.812Z,85
2017-01-06T09:20:47.965Z,80
2017-01-06T09:22:01.696Z,85
2017-01-06T09:23:15.362Z,85
2017-01-06T09:24:30.824Z,80
2017-01-06T09:25:48.864Z,80
2017-01-06T09:27:02.898Z,85
2017-01-06T09:28:17.645Z,85
2017-01-06T09:29:32.190Z,80
2017-01-06T09:30:47.315Z,85
2017-01-06T09:32:01.967Z,85
2017-01-06T09:33:16.499Z,85
2017-01-06T09:34:31.983Z,85
2017-01-06T09:35:47.477Z,80
2017-01-06T09:37:04.592Z,80
2017-01-06T09:38:19.683Z,80
2017-01-06T09:39:34.892Z,85
2017-01-06T09:40:49.116Z,85
2017-01-06T09:42:04.668Z,85
2017-01-06T09:43:20.092Z,85
2017-01-06T09:44:34.147Z,90
2017-01-06T09:45:48.796Z,90
2017-01-06T09:47:02.964Z,90
2017-01-06T09:48:17.013Z,90
2017-01-06T09:49:31.949Z,90
2017-01-06T09:50:46.446Z,85
2017-01-06T09:52:02.960Z,90
2017-01-06T09:53:17.871Z,85
2017-01-06T09:54:32.816Z,90
2017-01-06T09:55:47.295Z,90
2017-01-06T09:57:02.252Z,90
2017-01-06T09:58:17.168Z,90
2017-01-06T09:59:32.047Z,90
2017-01-06T10:00:47.031Z,90
2017-01-06T10:02:01.597Z,90
2017-01-06T10:03:16.160Z,90
2017-01-06T10:04:30.780Z,90
2017-01-06T10:05:44.927Z,90
2017-01-06T10:07:00.308Z,90
2017-01-06T10:08:14.664Z,90
2017-01-06T10:09:30.471Z,90
2017-01-06T10:10:44.711Z,90
2017-01-06T10:11:59.943Z,90
2017-01-06T10:13:14.935Z,90
2017-01-06T10:14:30.455Z,90
2017-01-06T10:15:44.902Z,90
2017-01-06T10:17:00.382Z,90
2017-01-06T10:18:16.118Z,90
2017-01-06T10:19:32.066Z,90
2017-01-06T10:20:47.231Z,90
2017-01-06T10:22:01.190Z,90
2017-01-06T10:23:15.919Z,90
2017-01-06T10:24:29.569Z,90
2017-01-06T10:25:44.421Z,90
2017-01-06T10:26:58.598Z,90
2017-01-06T10:28:13.162Z,90
2017-01-06T10:29:27.671Z,90
2017-01-06T10:30:42.675Z,90
2017-01-06T10:31:56.606Z,90
2017-01-06T10:33:10.798Z,90
2017-01-06T10:34:25.319Z,90
2017-01-06T10:35:38.933Z,90
2017-01-06T10:36:52.550Z,90
2017-01-06T10:38:08.254Z,90
2017-01-06T10:39:22.747Z,90
2017-01-06T10:40:37.251Z,90
2017-01-06T10:41:50.814Z,95
2017-01-06T10:43:05.317Z,95
2017-01-06T10:44:21.493Z,95
2017-01-06T10:45:37.278Z,95
2017-01-06T10:46:52.531Z,95
2017-01-06T10:48:07.975Z,95
2017-01-06T10:49:21.595Z,95
2017-01-06T10:50:36.113Z,95
2017-01-06T10:51:50.152Z,95
2017-01-06T10:53:05.676Z,95
2017-01-06T10:54:19.574Z,95
2017-01-06T10:55:33.624Z,95
2017-01-06T10:56:48.151Z,95
2017-01-06T10:58:17.933Z,95
2017-01-06T10:59:31.972Z,95
2017-01-06T11:00:46.342Z,95
2017-01-06T11:02:00.695Z,95
2017-01-06T11:03:14.863Z,95
2017-01-06T11:04:30.119Z,95
2017-01-06T11:05:44.494Z,95
2017-01-06T11:06:58.764Z,95
2017-01-06T11:08:15.429Z,95
2017-01-06T11:09:30.440Z,95
2017-01-06T11:10:45.064Z,95
2017-01-06T11:11:59.565Z,95
2017-01-06T11:13:14.219Z,95
2017-01-06T11:14:28.708Z,95
2017-01-06T11:16:10.075Z,95
2017-01-06T11:17:24.954Z,95
2017-01-06T11:18:39.121Z,95
2017-01-06T11:20:12.873Z,95
2017-01-06T11:21:26.955Z,95
2017-01-06T11:22:41.832Z,95
2017-01-06T11:23:56.121Z,95
2017-01-06T11:25:11.422Z,95
2017-01-06T11:26:25.524Z,95
2017-01-06T11:27:41.794Z,95
2017-01-06T11:28:55.945Z,95
2017-01-06T11:30:10.577Z,95
2017-01-06T11:31:25.315Z,95
2017-01-06T11:32:40.251Z,95
2017-01-06T11:33:54.410Z,95
2017-01-06T11:35:08.092Z,95
2017-01-06T11:36:22.251Z,95
2017-01-06T11:37:37.313Z,95
2017-01-06T11:38:52.430Z,95
2017-01-06T11:40:06.552Z,95
2017-01-06T11:41:20.709Z,95
2017-01-06T11:42:34.794Z,95
2017-01-06T11:43:49.924Z,95
2017-01-06T11:45:04.044Z,95
2017-01-06T11:46:18.068Z,95
2017-01-06T11:47:32.582Z,95
2017-01-06T11:48:47.577Z,95
2017-01-06T11:50:01.716Z,95
2017-01-06T11:51:16.190Z,95
2017-01-06T11:52:30.774Z,95
2017-01-06T11:53:45.709Z,95
2017-01-06T11:55:01.036Z,95
2017-01-06T11:56:16.579Z,95
2017-01-06T11:57:32.001Z,95
2017-01-06T11:58:46.088Z,95
2017-01-06T12:00:00.274Z,95
2017-01-06T12:01:15.985Z,95
2017-01-06T12:02:29.616Z,95
2017-01-06T12:03:45.774Z,95
2017-01-06T12:05:00.803Z,95
2017-01-06T12:06:15.337Z,95
2017-01-06T12:07:28.968Z,95
2017-01-06T12:08:43.392Z,95
2017-01-06T12:09:57.947Z,90
2017-01-06T12:11:12.180Z,90
2017-01-06T12:12:26.665Z,90
2017-01-06T12:13:40.395Z,90
2017-01-06T12:14:55.046Z,90
2017-01-06T12:16:09.557Z,90
2017-01-06T12:17:24.168Z,90
2017-01-06T12:18:38.634Z,90
2017-01-06T12:19:52.503Z,90
2017-01-06T12:21:07.042Z,90
2017-01-06T12:22:21.500Z,90
2017-01-06T12:23:36.302Z,90
2017-01-06T12:24:50.856Z,90
2017-01-06T12:26:04.880Z,90
2017-01-06T12:27:18.619Z,90
2017-01-06T12:28:32.637Z,90
2017-01-06T12:29:48.172Z,90
2017-01-06T12:31:02.818Z,90
2017-01-06T12:32:17.474Z,90
2017-01-06T12:33:31.244Z,90
2017-01-06T12:34:45.788Z,90
2017-01-06T12:36:00.942Z,90
2017-01-06T12:37:15.529Z,90
2017-01-06T12:38:30.645Z,90
2017-01-06T12:39:46.970Z,90
2017-01-06T12:41:02.524Z,90
2017-01-06T12:42:18.259Z,90
2017-01-06T12:43:33.301Z,90
2017-01-06T12:44:51.153Z,90
2017-01-06T12:46:05.869Z,90
2017-01-06T12:47:20.999Z,90
2017-01-06T12:48:37.347Z,90
2017-01-06T12:49:52.713Z,90
2017-01-06T12:51:09.028Z,90
2017-01-06T12:52:24.133Z,90
2017-01-06T12:53:39.108Z,90
2017-01-06T12:54:54.571Z,90
2017-01-06T12:56:09.185Z,90
2017-01-06T12:57:23.850Z,90
2017-01-06T12:58:38.331Z,90
2017-01-06T12:59:52.009Z,90
2017-01-06T13:01:06.501Z,80
2017-01-06T13:02:20.956Z,80
2017-01-06T13:03:34.810Z,85
2017-01-06T13:04:49.037Z,85
2017-01-06T13:06:04.524Z,85
2017-01-06T13:07:18.826Z,85
2017-01-06T13:08:33.363Z,85
2017-01-06T13:10:04.840Z,85
2017-01-06T13:11:18.901Z,85
2017-01-06T13:12:32.956Z,85
2017-01-06T13:13:47.846Z,85
2017-01-06T13:15:03.665Z,85
2017-01-06T13:16:18.313Z,85
2017-01-06T13:17:33.622Z,85
2017-01-06T13:18:48.160Z,85
2017-01-06T13:20:03.803Z,80
2017-01-06T13:21:19.372Z,80
2017-01-06T13:22:33.414Z,80
2017-01-06T13:23:48.376Z,80
2017-01-06T13:25:03.360Z,80
2017-01-06T13:26:18.503Z,80
2017-01-06T13:27:33.175Z,85
2017-01-06T13:28:47.676Z,85
2017-01-06T13:31:33.576Z,85
2017-01-06T13:32:48.383Z,85
2017-01-06T13:34:02.471Z,85
2017-01-06T13:35:18.162Z,85
2017-01-06T13:36:34.082Z,85
2017-01-06T13:37:49.479Z,85
2017-01-06T13:39:05.453Z,85
2017-01-06T13:40:20.508Z,80
2017-01-06T13:41:34.582Z,80
2017-01-06T13:42:48.289Z,80
2017-01-06T13:44:02.817Z,80
2017-01-06T13:45:18.961Z,80
2017-01-06T13:46:33.076Z,80
2017-01-06T13:47:47.197Z,80
2017-01-06T13:49:01.720Z,80
2017-01-06T13:50:17.526Z,80
2017-01-06T13:51:33.342Z,80
2017-01-06T13:52:47.864Z,75
2017-01-06T13:54:02.492Z,75
2017-01-06T13:55:18.092Z,75
2017-01-06T13:56:33.946Z,75
2017-01-06T13:57:49.777Z,75
2017-01-06T13:59:05.720Z,75
2017-01-06T14:00:21.230Z,75
2017-01-06T14:01:36.167Z,75
2017-01-06T14:02:54.076Z,75
2017-01-06T14:04:09.778Z,70
2017-01-06T14:05:27.259Z,70
2017-01-06T14:06:42.943Z,70
2017-01-06T14:07:58.046Z,70
2017-01-06T14:09:13.091Z,70
2017-01-06T14:10:28.090Z,70
2017-01-06T14:11:43.446Z,70
2017-01-06T14:13:01.626Z,65
2017-01-06T14:14:17.073Z,65
2017-01-06T14:15:46.217Z,65
2017-01-06T14:17:01.383Z,65
2017-01-06T14:18:16.434Z,65
2017-01-06T14:19:30.674Z,65
2017-01-06T14:20:46.626Z,65
2017-01-06T14:22:03.330Z,60
2017-01-06T14:23:17.966Z,60
2017-01-06T14:24:33.635Z,60
2017-01-06T14:25:48.267Z,60
2017-01-06T14:27:04.930Z,60
2017-01-06T14:28:20.049Z,60
2017-01-06T14:29:35.858Z,60
2017-01-06T14:30:51.279Z,55
2017-01-06T14:32:06.851Z,55
2017-01-06T14:33:21.485Z,55
2017-01-06T14:34:37.143Z,55
2017-01-06T14:35:53.574Z,55
2017-01-06T14:37:08.811Z,50
2017-01-06T14:38:24.286Z,50
2017-01-06T14:39:38.414Z,50
2017-01-06T14:40:53.250Z,50
2017-01-06T14:42:07.027Z,50
2017-01-06T14:43:22.474Z,45
2017-01-06T14:44:38.125Z,45
2017-01-06T14:45:54.850Z,45
2017-01-06T14:47:10.595Z,45
2017-01-06T14:48:26.586Z,45
2017-01-06T14:49:42.498Z,40
2017-01-06T14:50:57.343Z,40
2017-01-06T14:52:12.193Z,40
2017-01-06T14:53:26.746Z,40
2017-01-06T14:54:42.720Z,40
2017-01-06T14:55:58.395Z,35
2017-01-06T14:57:14.003Z,35
2017-01-06T14:58:30.366Z,35
2017-01-06T14:59:44.745Z,35
2017-01-06T15:00:58.864Z,35
2017-01-06T15:02:14.062Z,30
2017-01-06T15:03:28.854Z,30
2017-01-06T15:04:43.357Z,30
2017-01-06T15:05:57.393Z,30
2017-01-06T15:07:11.511Z,30
2017-01-06T15:08:25.708Z,25
2017-01-06T15:09:40.282Z,25
2017-01-06T15:10:54.664Z,25
2017-01-06T15:12:08.724Z,25
2017-01-06T15:13:24.503Z,25
2017-01-06T15:14:38.181Z,20
2017-01-06T15:15:52.377Z,20
2017-01-06T15:17:06.117Z,20
2017-01-06T15:18:21.095Z,20
2017-01-06T15:19:35.446Z,15
2017-01-06T15:20:53.289Z,15
2017-01-06T15:22:07.392Z,15
2017-01-06T15:23:22.013Z,15
2017-01-06T15:24:37.097Z,15
2017-01-06T15:25:52.500Z,10
2017-01-06T15:27:07.352Z,10
2017-01-06T15:28:21.948Z,10
2017-01-06T15:29:36.076Z,10
2017-01-06T15:30:51.599Z,10
2017-01-06T15:32:05.314Z,10
2017-01-06T15:33:20.266Z,5
2017-01-06T15:34:35.273Z,5
2017-01-06T15:35:49.079Z,5
2017-01-06T15:37:03.764Z,5
2017-01-06T15:38:19.543Z,5
2017-01-06T15:39:34.209Z,5
2017-01-06T15:40:48.940Z,5
2017-01-06T15:42:04.276Z,5
2017-01-06T15:43:20.387Z,0
2017-01-06T15:44:35.023Z,0
2017-01-06T15:45:50.867Z,0
2017-01-06T15:47:05.685Z,0
2017-01-06T15:48:20.327Z,0
2017-01-06T15:49:35.183Z,0
2017-01-06T15:50:50.403Z,0
2017-01-06T15:52:04.756Z,0
2017-01-06T15:53:19.096Z,0
2017-01-06T15:54:34.162Z,0
2017-01-06T15:55:51.251Z,0
2017-01-06T15:57:06.744Z,0
2017-01-06T15:58:21.570Z,0
2017-01-06T15:59:36.307Z,0
2017-01-06T16:00:50.254Z,0
2017-01-06T16:02:06.535Z,0
2017-01-06T16:03:22.248Z,0
2017-01-06T16:04:38.328Z,0
2017-01-06T16:05:53.728Z,0
2017-01-06T16:07:09.541Z,0
2017-01-06T16:08:24.304Z,0
2017-01-06T16:09:38.112Z,0
2017-01-06T16:10:52.316Z,0
2017-01-06T16:12:06.115Z,0
2017-01-06T16:13:20.924Z,0
2017-01-06T16:14:36.760Z,0
2017-01-06T16:15:51.184Z,0
2017-01-06T16:17:06.617Z,0
2017-01-06T16:18:21.202Z,0
2017-01-06T16:19:36.041Z,0
2017-01-06T16:20:52.541Z,0
2017-01-06T16:22:08.047Z,0
2017-01-06T16:23:22.894Z,0
2017-01-06T16:24:38.221Z,0
2017-01-06T16:25:53.401Z,0
2017-01-06T16:27:08.236Z,0
2017-01-06T16:28:23.027Z,0
2017-01-06T16:29:36.928Z,0
2017-01-06T16:30:51.736Z,0
2017-01-06T16:32:08.695Z,0
2017-01-06T16:33:24.057Z,0
2017-01-06T16:34:38.363Z,0
2017-01-06T16:35:54.461Z,0
2017-01-06T16:37:10.406Z,0
2017-01-06T16:38:27.647Z,0
2017-01-06T16:39:43.005Z,0
2017-01-06T16:40:59.142Z,0
2017-01-06T16:42:13.427Z,0
2017-01-06T16:43:27.923Z,0
2017-01-06T16:44:42.673Z,0
2017-01-06T16:45:58.919Z,0
2017-01-06T16:47:13.580Z,0
2017-01-06T16:48:28.513Z,0
2017-01-06T16:49:43.805Z,0
2017-01-06T16:50:57.480Z,0
2017-01-06T16:52:28.565Z,0
2017-01-06T16:53:42.898Z,0
2017-01-06T16:54:57.453Z,0
2017-01-06T16:56:12.143Z,0
2017-01-06T16:57:26.085Z,0
2017-01-06T16:58:39.882Z,0
2017-01-06T16:59:54.702Z,0
2017-01-06T17:01:10.357Z,0
2017-01-06T17:02:25.377Z,0
2017-01-06T17:03:39.647Z,0
2017-01-06T17:04:53.986Z,0
2017-01-06T17:06:08.350Z,0
2017-01-06T17:07:23.353Z,0
2017-01-06T17:08:38.166Z,0
2017-01-06T17:09:53.768Z,0
2017-01-06T17:11:08.200Z,0
2017-01-06T17:12:23.199Z,0
2017-01-06T17:13:37.198Z,0
2017-01-06T17:14:51.303Z,0
2017-01-06T17:16:05.763Z,0
2017-01-06T17:17:20.786Z,0
2017-01-06T17:18:35.237Z,0
2017-01-06T17:19:49.475Z,0
2017-01-06T17:21:05.198Z,0
2017-01-06T17:22:20.767Z,0
2017-01-06T17:23:36.274Z,0
2017-01-06T17:24:51.068Z,0
2017-01-06T17:26:06.338Z,0
2017-01-06T17:27:22.084Z,0
2017-01-06T17:28:36.984Z,0
2017-01-06T17:29:53.403Z,0
2017-01-06T17:31:08.130Z,0
2017-01-06T17:32:22.056Z,0
2017-01-06T17:33:37.202Z,0
2017-01-06T17:34:51.879Z,0
2017-01-06T17:36:05.675Z,0
2017-01-06T17:37:20.414Z,0
2017-01-06T17:38:35.533Z,0
2017-01-06T17:39:50.864Z,0
2017-01-06T17:41:05.763Z,0
2017-01-06T17:42:21.041Z,0
2017-01-06T17:43:35.792Z,0
2017-01-06T17:44:50.515Z,0
2017-01-06T17:46:04.464Z,0
2017-01-06T17:47:19.380Z,0
2017-01-06T17:48:34.398Z,0
2017-01-06T17:49:49.427Z,0
2017-01-06T17:51:04.951Z,0
2017-01-06T17:52:20.256Z,0
2017-01-06T17:53:50.547Z,0
2017-01-06T17:55:06.242Z,0
2017-01-06T17:56:23.456Z,0
2017-01-06T17:57:37.806Z,0
2017-01-06T17:58:52.654Z,0
2017-01-06T18:00:06.967Z,0
2017-01-06T18:01:21.602Z,0
2017-01-06T18:02:37.520Z,0
2017-01-06T18:03:52.861Z,0
2017-01-06T18:05:06.559Z,0
2017-01-06T18:06:22.230Z,0
2017-01-06T18:07:36.519Z,0
2017-01-06T18:08:52.267Z,0
2017-01-06T18:10:08.882Z,0
2017-01-06T18:11:23.871Z,0
2017-01-06T18:12:38.495Z,0
2017-01-06T18:13:53.223Z,0
2017-01-06T18:15:07.362Z,0
2017-01-06T18:16:21.991Z,0